Terminal Aerodrome Forecast
Issued by NWS

Home | Current Version | Previous Version | Text Only | Print | Product List | Glossary On
Versions: 1 2 3 4 5 6 7 8 9 10 11 12 13 14
000
FTUS43 KMQT 032322
TAFIWD
TAF
KIWD 032322Z 0400/0424 VRB03KT P6SM SCT120
     FM040100 35003KT P6SM BKN110
     FM040500 02006KT P6SM BKN050
     FM041200 01008KT P6SM BKN030
     FM041700 01010G16KT P6SM SCT050
     FM042200 01006KT P6SM SKC=

USA.gov is the U.S. government's official web portal to all federal, state and local government web resources and services.